createdAt,value
2023-04-02T00:01:37.307Z,90.52
2023-04-02T00:04:14.790Z,90.78
2023-04-02T00:06:45.303Z,90.80
2023-04-02T00:09:15.210Z,90.58
2023-04-02T00:11:45.152Z,90.53
2023-04-02T00:14:27.426Z,90.53
2023-04-02T00:16:56.076Z,90.26
2023-04-02T00:19:42.369Z,89.94
2023-04-02T00:22:20.562Z,89.99
2023-04-02T00:24:51.392Z,90.19
2023-04-02T00:27:18.157Z,90.06
2023-04-02T00:29:56.260Z,90.00
2023-04-02T00:32:27.565Z,90.11
2023-04-02T00:34:55.905Z,90.32
2023-04-02T00:37:28.190Z,89.89
2023-04-02T00:40:07.380Z,90.02
2023-04-02T00:42:36.043Z,89.96
2023-04-02T00:45:03.381Z,89.57
2023-04-02T00:47:37.594Z,89.43
2023-04-02T00:50:14.677Z,89.27
2023-04-02T00:52:44.835Z,89.13
2023-04-02T00:55:18.016Z,89.27
2023-04-02T00:57:45.853Z,89.17
2023-04-02T01:00:35.849Z,89.25
2023-04-02T01:03:18.161Z,89.13
2023-04-02T01:05:51.916Z,89.17
2023-04-02T01:08:21.514Z,89.09
2023-04-02T01:10:54.157Z,89.21
2023-04-02T01:13:35.363Z,89.19
2023-04-02T01:16:20.962Z,89.41
2023-04-02T01:19:02.224Z,89.14
2023-04-02T01:21:53.203Z,89.07
2023-04-02T01:24:24.726Z,88.96
2023-04-02T01:26:58.093Z,89.15
2023-04-02T01:30:05.414Z,89.19
2023-04-02T01:32:32.471Z,89.22
2023-04-02T01:34:59.203Z,89.34
2023-04-02T01:37:37.086Z,89.46
2023-04-02T01:40:29.477Z,89.28
2023-04-02T01:43:11.772Z,89.28
2023-04-02T01:45:38.649Z,89.33
2023-04-02T01:48:07.458Z,89.39
2023-04-02T01:50:40.388Z,89.25
2023-04-02T01:53:10.928Z,89.30
2023-04-02T01:55:43.574Z,89.35
2023-04-02T01:58:12.380Z,89.05
2023-04-02T02:00:49.908Z,89.15
2023-04-02T02:03:17.620Z,89.11
2023-04-02T02:05:44.879Z,89.48
2023-04-02T02:08:24.284Z,89.35
2023-04-02T02:10:51.040Z,89.30
2023-04-02T02:13:17.924Z,89.43
2023-04-02T02:15:48.051Z,89.67
2023-04-02T02:18:20.215Z,89.55
2023-04-02T02:20:47.694Z,89.48
2023-04-02T02:23:15.100Z,89.47
2023-04-02T02:25:41.984Z,89.18
2023-04-02T02:28:33.489Z,89.46
2023-04-02T02:31:07.146Z,89.39
2023-04-02T02:33:39.390Z,89.73
2023-04-02T02:36:16.296Z,89.35
2023-04-02T02:38:54.391Z,89.38
2023-04-02T02:41:42.921Z,89.54
2023-04-02T02:44:09.646Z,89.28
2023-04-02T02:46:51.836Z,89.09
2023-04-02T02:49:26.871Z,89.33
2023-04-02T02:52:07.784Z,89.00
2023-04-02T02:54:36.355Z,89.34
2023-04-02T02:57:07.798Z,89.30
2023-04-02T02:59:34.942Z,89.43
2023-04-02T03:02:04.015Z,89.39
2023-04-02T03:04:31.031Z,89.26
2023-04-02T03:06:58.922Z,89.41
2023-04-02T03:09:34.269Z,89.60
2023-04-02T03:12:19.437Z,89.62
2023-04-02T03:15:13.898Z,89.54
2023-04-02T03:18:11.370Z,89.50
2023-04-02T03:20:46.924Z,89.54
2023-04-02T03:23:22.688Z,89.82
2023-04-02T03:26:11.679Z,89.52
2023-04-02T03:28:46.806Z,89.62
2023-04-02T03:31:19.981Z,89.69
2023-04-02T03:33:53.246Z,89.53
2023-04-02T03:36:33.268Z,89.69
2023-04-02T03:39:23.201Z,89.60
2023-04-02T03:41:52.684Z,89.72
2023-04-02T03:44:32.027Z,89.76
2023-04-02T03:47:12.614Z,89.58
2023-04-02T03:49:53.233Z,89.53
2023-04-02T03:52:28.543Z,89.65
2023-04-02T03:54:58.962Z,89.36
2023-04-02T03:58:07.588Z,89.45
2023-04-02T04:00:52.616Z,89.74
2023-04-02T04:03:31.751Z,89.62
2023-04-02T04:06:18.302Z,89.44
2023-04-02T04:09:11.166Z,89.65
2023-04-02T04:11:48.449Z,89.74
2023-04-02T04:14:20.336Z,89.89
2023-04-02T04:16:53.947Z,89.78
2023-04-02T04:19:33.854Z,89.79
2023-04-02T04:22:34.175Z,89.68
2023-04-02T04:25:02.545Z,89.82
2023-04-02T04:27:48.345Z,89.79
2023-04-02T04:30:24.610Z,89.66
2023-04-02T04:32:58.764Z,89.64
2023-04-02T04:35:31.377Z,89.53
2023-04-02T04:38:07.922Z,89.54
2023-04-02T04:40:45.828Z,89.67
2023-04-02T04:43:19.015Z,89.57
2023-04-02T04:45:54.669Z,89.74
2023-04-02T04:48:29.761Z,89.47
2023-04-02T04:51:04.240Z,89.80
2023-04-02T04:53:31.418Z,89.97
2023-04-02T04:56:12.533Z,90.45
2023-04-02T04:58:53.908Z,90.57
2023-04-02T05:01:28.987Z,90.77
2023-04-02T05:04:11.559Z,90.87
2023-04-02T05:06:49.638Z,90.91
2023-04-02T05:09:29.718Z,91.16
2023-04-02T05:12:05.383Z,91.47
2023-04-02T05:14:46.121Z,91.36
2023-04-02T05:17:23.676Z,91.66
2023-04-02T05:20:09.890Z,91.48
2023-04-02T05:22:44.267Z,91.96
2023-04-02T05:25:31.090Z,92.03
2023-04-02T05:28:03.928Z,91.89
2023-04-02T05:30:41.124Z,92.06
2023-04-02T05:33:28.932Z,91.94
2023-04-02T05:36:05.590Z,91.84
2023-04-02T05:38:35.660Z,91.87
2023-04-02T05:41:07.417Z,91.74
2023-04-02T05:43:37.287Z,92.09
2023-04-02T05:46:14.246Z,91.79
2023-04-02T05:48:43.552Z,91.96
2023-04-02T05:51:19.069Z,91.90
2023-04-02T05:53:57.377Z,92.18
2023-04-02T05:56:40.158Z,92.24
2023-04-02T05:59:23.269Z,92.12
2023-04-02T06:02:24.253Z,92.28
2023-04-02T06:04:58.499Z,92.23
2023-04-02T06:07:36.422Z,91.99
2023-04-02T06:10:08.143Z,91.80
2023-04-02T06:12:46.975Z,91.83
2023-04-02T06:15:21.492Z,91.55
2023-04-02T06:17:53.057Z,91.41
2023-04-02T06:20:21.426Z,91.23
2023-04-02T06:23:02.971Z,91.34
2023-04-02T06:25:38.000Z,91.11
2023-04-02T06:28:07.258Z,91.22
2023-04-02T06:30:38.134Z,91.50
2023-04-02T06:33:05.138Z,91.41
2023-04-02T06:35:35.212Z,91.68
2023-04-02T06:38:06.175Z,91.55
2023-04-02T06:40:35.886Z,91.43
2023-04-02T06:43:13.802Z,91.48
2023-04-02T06:45:44.256Z,91.55
2023-04-02T06:48:21.018Z,91.56
2023-04-02T06:51:07.431Z,91.52
2023-04-02T06:53:39.244Z,91.65
2023-04-02T06:56:17.676Z,91.29
2023-04-02T06:58:44.500Z,90.91
2023-04-02T07:01:19.915Z,90.50
2023-04-02T07:03:46.628Z,90.24
2023-04-02T07:06:20.445Z,90.04
2023-04-02T07:08:47.378Z,90.19
2023-04-02T07:11:20.891Z,90.15
2023-04-02T07:13:49.192Z,89.86
2023-04-02T07:16:18.149Z,89.65
2023-04-02T07:18:46.466Z,89.48
2023-04-02T07:21:13.408Z,89.32
2023-04-02T07:23:40.611Z,88.86
2023-04-02T07:26:08.462Z,88.47
2023-04-02T07:28:35.264Z,89.09
2023-04-02T07:31:01.981Z,88.79
2023-04-02T07:33:31.100Z,88.74
2023-04-02T07:35:58.621Z,88.70
2023-04-02T07:38:25.628Z,88.73
2023-04-02T07:40:52.686Z,88.88
2023-04-02T07:43:21.964Z,88.76
2023-04-02T07:45:50.794Z,88.55
2023-04-02T07:48:17.504Z,87.75
2023-04-02T07:50:44.175Z,87.63
2023-04-02T07:53:31.935Z,87.00
2023-04-02T07:56:01.613Z,87.51
2023-04-02T07:58:29.691Z,87.33
2023-04-02T08:00:56.676Z,87.17
2023-04-02T08:03:23.984Z,86.83
2023-04-02T08:05:58.653Z,87.31
2023-04-02T08:08:26.122Z,87.55
2023-04-02T08:10:53.052Z,87.26
2023-04-02T08:13:19.898Z,87.49
2023-04-02T08:15:46.683Z,87.38
2023-04-02T08:18:13.532Z,87.25
2023-04-02T08:20:40.398Z,87.28
2023-04-02T08:23:15.492Z,86.58
2023-04-02T08:25:42.421Z,86.70
2023-04-02T08:28:09.134Z,87.26
2023-04-02T08:30:36.026Z,87.65
2023-04-02T08:33:03.860Z,87.22
2023-04-02T08:35:30.917Z,86.95
2023-04-02T08:37:57.540Z,86.93
2023-04-02T08:40:37.549Z,87.35
2023-04-02T08:43:38.860Z,87.07
2023-04-02T08:46:19.214Z,87.15
2023-04-02T08:48:51.001Z,86.99
2023-04-02T08:51:26.980Z,86.87
2023-04-02T08:53:59.945Z,87.08
2023-04-02T08:56:33.821Z,87.23
2023-04-02T08:59:09.465Z,87.42
2023-04-02T09:01:47.426Z,86.96
2023-04-02T09:04:19.084Z,87.20
2023-04-02T09:06:47.276Z,87.43
2023-04-02T09:09:15.737Z,87.50
2023-04-02T09:12:04.603Z,87.14
2023-04-02T09:15:09.028Z,86.73
2023-04-02T09:17:50.607Z,86.72
2023-04-02T09:20:24.537Z,86.43
2023-04-02T09:22:53.377Z,86.58
2023-04-02T09:25:27.573Z,86.98
2023-04-02T09:27:57.772Z,86.70
2023-04-02T09:30:24.460Z,86.22
2023-04-02T09:32:57.171Z,86.26
2023-04-02T09:35:51.700Z,85.73
2023-04-02T09:38:29.138Z,86.50
2023-04-02T09:41:01.652Z,86.50
2023-04-02T09:43:29.715Z,85.94
2023-04-02T09:46:06.499Z,86.45
2023-04-02T09:48:36.388Z,86.27
2023-04-02T09:51:12.627Z,85.61
2023-04-02T09:54:13.279Z,85.72
2023-04-02T09:56:41.494Z,85.06
2023-04-02T09:59:13.929Z,84.77
2023-04-02T10:01:44.522Z,85.00
2023-04-02T10:04:33.915Z,85.46
2023-04-02T10:07:00.640Z,85.46
2023-04-02T10:09:38.721Z,85.26
2023-04-02T10:12:12.527Z,84.96
2023-04-02T10:14:48.652Z,84.73
2023-04-02T10:17:32.779Z,85.10
2023-04-02T10:20:06.708Z,85.25
2023-04-02T10:22:33.559Z,85.11
2023-04-02T10:25:00.685Z,84.96
2023-04-02T10:27:43.710Z,85.14
2023-04-02T10:30:50.201Z,84.96
2023-04-02T10:33:36.059Z,85.09
2023-04-02T10:36:24.372Z,85.14
2023-04-02T10:38:56.316Z,85.43
2023-04-02T10:41:29.208Z,85.16
2023-04-02T10:44:20.490Z,84.85
2023-04-02T10:47:19.107Z,85.12
2023-04-02T10:50:19.976Z,85.39
2023-04-02T10:52:56.543Z,85.29
2023-04-02T10:55:31.975Z,85.22
2023-04-02T10:58:06.789Z,85.22
2023-04-02T11:00:40.857Z,85.19
2023-04-02T11:03:14.487Z,85.15
2023-04-02T11:05:44.612Z,84.87
2023-04-02T11:08:23.143Z,84.62
2023-04-02T11:11:04.903Z,84.48
2023-04-02T11:13:41.738Z,84.19
2023-04-02T11:16:08.619Z,84.17
2023-04-02T11:18:38.978Z,84.54
2023-04-02T11:21:28.387Z,84.65
2023-04-02T11:24:00.863Z,84.53
2023-04-02T11:26:38.656Z,84.61
2023-04-02T11:29:15.138Z,84.40
2023-04-02T11:31:43.166Z,84.00
2023-04-02T11:34:43.231Z,83.99
2023-04-02T11:37:29.576Z,84.28
2023-04-02T11:39:59.457Z,83.94
2023-04-02T11:42:31.970Z,83.85
2023-04-02T11:45:23.186Z,83.48
2023-04-02T11:48:02.193Z,83.67
2023-04-02T11:50:37.697Z,83.56
2023-04-02T11:53:11.070Z,83.56
2023-04-02T11:55:39.977Z,83.23
2023-04-02T11:58:33.262Z,83.71
2023-04-02T12:01:08.032Z,83.40
2023-04-02T12:04:16.957Z,83.11
2023-04-02T12:06:47.381Z,83.14
2023-04-02T12:09:20.268Z,83.13
2023-04-02T12:11:48.130Z,82.86
2023-04-02T12:14:42.014Z,82.92
2023-04-02T12:17:32.470Z,82.75
2023-04-02T12:20:04.369Z,82.91
2023-04-02T12:22:33.856Z,83.35
2023-04-02T12:25:31.708Z,83.30
2023-04-02T12:28:10.655Z,83.60
2023-04-02T12:30:38.905Z,82.87
2023-04-02T12:33:37.666Z,83.46
2023-04-02T12:36:09.240Z,82.76
2023-04-02T12:38:45.855Z,82.89
2023-04-02T12:41:30.365Z,82.81
2023-04-02T12:44:02.641Z,83.25
2023-04-02T12:46:36.274Z,83.13
2023-04-02T12:49:08.660Z,83.05
2023-04-02T12:51:39.148Z,82.49
2023-04-02T12:54:06.430Z,82.34
2023-04-02T12:56:33.239Z,82.86
2023-04-02T12:59:01.548Z,83.36
2023-04-02T13:01:31.822Z,83.84
2023-04-02T13:04:01.534Z,83.31
2023-04-02T13:06:30.714Z,83.29
2023-04-02T13:08:59.111Z,83.74
2023-04-02T13:11:42.219Z,83.33
2023-04-02T13:14:20.030Z,82.81
2023-04-02T13:16:47.814Z,82.84
2023-04-02T13:19:17.274Z,83.26
2023-04-02T13:21:46.125Z,83.35
2023-04-02T13:24:30.601Z,83.43
2023-04-02T13:27:03.954Z,83.09
2023-04-02T13:29:34.492Z,83.26
2023-04-02T13:32:03.433Z,83.08
2023-04-02T13:34:31.048Z,83.57
2023-04-02T13:36:58.535Z,83.80
2023-04-02T13:39:26.238Z,83.89
2023-04-02T13:41:57.613Z,83.59
2023-04-02T13:44:32.757Z,83.96
2023-04-02T13:47:00.784Z,83.38
2023-04-02T13:49:28.290Z,83.17
2023-04-02T13:51:59.814Z,83.01
2023-04-02T13:54:37.566Z,83.26
2023-04-02T13:57:04.419Z,82.83
2023-04-02T13:59:31.583Z,82.84
2023-04-02T14:02:05.771Z,82.72
2023-04-02T14:04:38.503Z,83.15
2023-04-02T14:07:11.551Z,83.14
2023-04-02T14:10:01.279Z,83.54
2023-04-02T14:12:44.909Z,83.23
2023-04-02T14:16:09.038Z,83.21
2023-04-02T14:18:56.579Z,83.42
2023-04-02T14:21:47.845Z,83.70
2023-04-02T14:25:06.462Z,83.58
2023-04-02T14:27:36.978Z,83.83
2023-04-02T14:30:22.533Z,83.59
2023-04-02T14:33:13.876Z,84.00
2023-04-02T14:35:46.818Z,84.26
2023-04-02T14:38:24.918Z,84.29
2023-04-02T14:41:04.630Z,84.04
2023-04-02T14:43:45.265Z,84.34
2023-04-02T14:46:13.900Z,84.26
2023-04-02T14:48:54.476Z,84.46
2023-04-02T14:51:47.513Z,84.55
2023-04-02T14:54:26.329Z,84.78
2023-04-02T14:56:57.664Z,85.07
2023-04-02T15:00:13.568Z,85.11
2023-04-02T15:02:48.033Z,85.18
2023-04-02T15:05:20.548Z,85.05
2023-04-02T15:08:27.518Z,84.86
2023-04-02T15:11:10.566Z,85.01
2023-04-02T15:13:43.198Z,85.14
2023-04-02T15:16:16.604Z,84.42
2023-04-02T15:18:46.499Z,84.65
2023-04-02T15:21:29.665Z,84.83
2023-04-02T15:24:22.545Z,85.36
2023-04-02T15:26:58.139Z,85.27
2023-04-02T15:29:34.416Z,85.33
2023-04-02T15:32:25.132Z,85.43
2023-04-02T15:35:35.784Z,85.60
2023-04-02T15:38:36.676Z,85.27
2023-04-02T15:41:15.619Z,85.59
2023-04-02T15:44:01.952Z,85.47
2023-04-02T15:46:38.284Z,85.73
2023-04-02T15:49:33.720Z,86.09
2023-04-02T15:52:26.985Z,85.82
2023-04-02T15:55:18.974Z,86.40
2023-04-02T15:57:55.001Z,86.26
2023-04-02T16:00:26.866Z,86.25
2023-04-02T16:03:06.657Z,86.30
2023-04-02T16:05:39.450Z,86.39
2023-04-02T16:08:27.441Z,86.25
2023-04-02T16:10:54.220Z,86.55
2023-04-02T16:13:23.639Z,86.36
2023-04-02T16:16:00.258Z,86.51
2023-04-02T16:18:59.526Z,86.38
2023-04-02T16:21:50.672Z,86.40
2023-04-02T16:24:17.383Z,86.43
2023-04-02T16:26:54.540Z,86.33
2023-04-02T16:30:00.572Z,86.23
2023-04-02T16:32:58.854Z,85.91
2023-04-02T16:35:44.137Z,85.43
2023-04-02T16:38:18.302Z,84.90
2023-04-02T16:41:08.923Z,85.02
2023-04-02T16:44:13.887Z,84.93
2023-04-02T16:47:04.778Z,85.07
2023-04-02T16:49:47.949Z,85.54
2023-04-02T16:52:47.125Z,85.66
2023-04-02T16:55:47.098Z,85.76
2023-04-02T16:58:26.013Z,85.69
2023-04-02T17:01:08.805Z,85.81
2023-04-02T17:03:51.027Z,86.29
2023-04-02T17:06:44.503Z,86.41
2023-04-02T17:09:11.148Z,86.17
2023-04-02T17:11:46.885Z,86.17
2023-04-02T17:14:34.847Z,86.35
2023-04-02T17:17:04.036Z,86.30
2023-04-02T17:19:32.995Z,86.44
2023-04-02T17:22:03.299Z,86.70
2023-04-02T17:24:41.596Z,86.55
2023-04-02T17:27:37.952Z,86.43
2023-04-02T17:30:15.712Z,86.38
2023-04-02T17:32:43.281Z,86.18
2023-04-02T17:35:29.199Z,86.09
2023-04-02T17:37:56.813Z,86.01
2023-04-02T17:40:39.636Z,86.32
2023-04-02T17:43:46.273Z,85.82
2023-04-02T17:46:26.256Z,85.69
2023-04-02T17:49:08.351Z,85.30
2023-04-02T17:52:05.975Z,85.50
2023-04-02T17:54:53.293Z,85.47
2023-04-02T17:57:40.796Z,85.75
2023-04-02T18:00:19.478Z,85.65
2023-04-02T18:03:01.906Z,85.63
2023-04-02T18:05:43.268Z,85.67
2023-04-02T18:08:37.289Z,85.34
2023-04-02T18:11:19.345Z,85.00
2023-04-02T18:14:31.758Z,85.11
2023-04-02T18:17:10.221Z,84.92
2023-04-02T18:19:52.044Z,84.91
2023-04-02T18:22:42.186Z,85.03
2023-04-02T18:25:24.897Z,84.77
2023-04-02T18:28:31.197Z,84.94
2023-04-02T18:31:26.605Z,84.96
2023-04-02T18:34:18.760Z,85.14
2023-04-02T18:37:11.278Z,85.22
2023-04-02T18:39:47.656Z,85.22
2023-04-02T18:42:34.563Z,85.31
2023-04-02T18:45:09.818Z,85.04
2023-04-02T18:48:18.507Z,85.18
2023-04-02T18:50:47.268Z,85.04
2023-04-02T18:53:19.411Z,84.85
2023-04-02T18:55:55.328Z,85.41
2023-04-02T18:59:03.774Z,85.18
2023-04-02T19:01:39.507Z,85.11
2023-04-02T19:04:10.196Z,85.28
2023-04-02T19:06:43.537Z,85.39
2023-04-02T19:09:24.910Z,85.57
2023-04-02T19:11:53.307Z,85.31
2023-04-02T19:14:21.641Z,85.44
2023-04-02T19:17:00.219Z,85.37
2023-04-02T19:19:28.162Z,85.38
2023-04-02T19:22:08.226Z,85.28
2023-04-02T19:24:58.156Z,85.72
2023-04-02T19:27:41.889Z,85.63
2023-04-02T19:30:23.427Z,85.66
2023-04-02T19:33:08.408Z,85.45
2023-04-02T19:35:54.172Z,85.54
2023-04-02T19:38:43.772Z,85.81
2023-04-02T19:41:16.336Z,86.02
2023-04-02T19:43:43.465Z,85.74
2023-04-02T19:46:10.257Z,85.59
2023-04-02T19:48:51.562Z,85.98
2023-04-02T19:51:18.229Z,85.74
2023-04-02T19:53:44.921Z,85.97
2023-04-02T19:56:11.626Z,86.20
2023-04-02T19:58:38.304Z,85.97
2023-04-02T20:01:05.138Z,85.98
2023-04-02T20:03:32.671Z,85.93
2023-04-02T20:05:59.916Z,85.73
2023-04-02T20:08:27.669Z,86.06
2023-04-02T20:10:55.033Z,86.32
2023-04-02T20:13:21.738Z,86.35
2023-04-02T20:15:49.309Z,86.52
2023-04-02T20:18:16.134Z,86.60
2023-04-02T20:20:48.481Z,86.51
2023-04-02T20:23:16.650Z,86.59
2023-04-02T20:25:47.863Z,87.08
2023-04-02T20:28:14.649Z,86.79
2023-04-02T20:30:41.378Z,86.65
2023-04-02T20:33:08.562Z,86.70
2023-04-02T20:35:35.784Z,86.42
2023-04-02T20:38:06.556Z,86.51
2023-04-02T20:40:33.910Z,86.29
2023-04-02T20:43:00.792Z,86.31
2023-04-02T20:45:29.365Z,86.54
2023-04-02T20:47:56.890Z,86.65
2023-04-02T20:50:24.382Z,86.60
2023-04-02T20:52:52.010Z,86.80
2023-04-02T20:55:19.826Z,86.89
2023-04-02T20:57:47.034Z,86.80
2023-04-02T21:00:14.813Z,87.06
2023-04-02T21:02:44.215Z,86.67
2023-04-02T21:05:11.156Z,86.77
2023-04-02T21:07:37.943Z,86.82
2023-04-02T21:10:04.902Z,86.93
2023-04-02T21:12:31.796Z,86.34
2023-04-02T21:15:01.715Z,86.60
2023-04-02T21:17:29.484Z,86.98
2023-04-02T21:19:56.275Z,86.97
2023-04-02T21:22:23.154Z,86.77
2023-04-02T21:24:49.852Z,87.26
2023-04-02T21:27:16.966Z,87.23
2023-04-02T21:29:44.677Z,87.32
2023-04-02T21:32:20.777Z,87.49
2023-04-02T21:34:48.450Z,87.33
2023-04-02T21:37:15.135Z,87.65
2023-04-02T21:39:41.782Z,87.65
2023-04-02T21:42:08.534Z,88.04
2023-04-02T21:44:35.136Z,88.16
2023-04-02T21:47:01.831Z,88.42
2023-04-02T21:49:30.017Z,88.42
2023-04-02T21:51:56.789Z,88.23
2023-04-02T21:54:23.741Z,88.01
2023-04-02T21:56:50.857Z,87.63
2023-04-02T21:59:18.272Z,87.98
2023-04-02T22:01:50.707Z,88.08
2023-04-02T22:04:25.842Z,88.50
2023-04-02T22:06:53.697Z,88.66
2023-04-02T22:09:23.703Z,88.63
2023-04-02T22:11:54.712Z,88.25
2023-04-02T22:14:21.845Z,88.32
2023-04-02T22:16:48.675Z,88.32
2023-04-02T22:19:16.835Z,88.22
2023-04-02T22:21:43.753Z,87.92
2023-04-02T22:24:14.027Z,88.29
2023-04-02T22:26:41.585Z,88.52
2023-04-02T22:29:08.617Z,88.18
2023-04-02T22:31:36.951Z,88.19
2023-04-02T22:34:06.173Z,88.16
2023-04-02T22:36:33.703Z,88.57
2023-04-02T22:39:01.327Z,88.83
2023-04-02T22:41:29.607Z,88.66
2023-04-02T22:43:59.147Z,88.38
2023-04-02T22:46:27.325Z,88.65
2023-04-02T22:48:56.000Z,88.52
2023-04-02T22:51:24.384Z,88.57
2023-04-02T22:53:53.887Z,88.90
2023-04-02T22:56:23.209Z,89.01
2023-04-02T22:58:50.500Z,89.06
2023-04-02T23:01:29.577Z,88.86
2023-04-02T23:03:57.021Z,89.06
2023-04-02T23:06:24.757Z,88.90
2023-04-02T23:08:52.490Z,89.20
2023-04-02T23:11:27.964Z,89.26
2023-04-02T23:13:57.853Z,89.19
2023-04-02T23:16:27.296Z,89.19
2023-04-02T23:18:55.926Z,89.14
2023-04-02T23:21:23.417Z,88.80
2023-04-02T23:23:51.227Z,89.25
2023-04-02T23:26:21.962Z,88.96
2023-04-02T23:28:49.937Z,89.00
2023-04-02T23:31:22.920Z,88.73
2023-04-02T23:33:51.572Z,88.83
2023-04-02T23:36:26.593Z,88.97
2023-04-02T23:38:55.760Z,88.73
2023-04-02T23:41:27.100Z,88.95
2023-04-02T23:43:55.035Z,88.79
2023-04-02T23:46:23.500Z,88.72
2023-04-02T23:48:51.475Z,88.94
2023-04-02T23:51:18.790Z,88.75
2023-04-02T23:53:45.555Z,88.87
2023-04-02T23:56:12.474Z,88.96
2023-04-02T23:58:39.148Z,88.83
